Time;durP1;ratioP1;P1;durP2;ratioP2;P2;SDS_P1;SDS_P2;PMS_P1;PMS_P2;Temp;Humidity;BMP_temperature;BMP_pressure;BME280_temperature;BME280_humidity;BME280_pressure;Samples;Min_cycle;Max_cycle;Signal;HPM_P1;HPM_P2
2022/04/26 03:36:16;;;;;;;7.07;2.53;;;11.60;96.70;;;;;;5067901;28;20101;-85
2022/04/26 03:38:47;;;;;;;4.50;2.40;;;11.60;96.70;;;;;;5049864;28;20045;-86
2022/04/26 03:41:16;;;;;;;4.85;2.45;;;11.40;96.70;;;;;;5080597;28;20147;-86
2022/04/26 03:43:44;;;;;;;5.82;2.50;;;11.30;96.70;;;;;;5067461;28;20068;-86
2022/04/26 03:46:12;;;;;;;5.95;2.88;;;11.30;96.70;;;;;;5052088;28;20465;-86
2022/04/26 03:48:40;;;;;;;6.30;2.70;;;11.30;96.70;;;;;;5068112;28;20036;-85
2022/04/26 03:51:08;;;;;;;6.35;3.17;;;11.30;96.70;;;;;;5080212;28;20059;-86
2022/04/26 03:53:39;;;;;;;5.07;2.80;;;11.50;96.70;;;;;;5063848;28;20398;-85
2022/04/26 03:56:07;;;;;;;7.13;2.75;;;11.50;96.70;;;;;;5083659;28;20158;-86
2022/04/26 03:58:35;;;;;;;4.93;3.40;;;11.40;96.70;;;;;;5077830;28;20084;-86
2022/04/26 04:01:04;;;;;;;4.85;2.60;;;11.60;96.70;;;;;;5084140;28;20052;-86
2022/04/26 04:03:35;;;;;;;6.75;4.82;;;11.50;96.70;;;;;;5050388;28;20418;-86
2022/04/26 04:06:04;;;;;;;6.05;3.63;;;11.50;96.70;;;;;;5067821;28;20057;-86
2022/04/26 04:08:32;;;;;;;6.70;2.60;;;11.50;96.70;;;;;;5055194;28;20391;-86
2022/04/26 04:11:02;;;;;;;5.88;3.25;;;11.40;96.70;;;;;;5065074;28;20510;-86
2022/04/26 04:13:30;;;;;;;5.45;2.85;;;11.40;96.70;;;;;;5078541;28;20041;-87
2022/04/26 04:15:58;;;;;;;5.38;3.13;;;11.40;96.70;;;;;;5084982;28;20044;-86
2022/04/26 04:21:12;;;;;;;4.87;2.47;;;11.40;96.70;;;;;;5063390;28;20047;-86
2022/04/26 04:23:40;;;;;;;9.50;2.70;;;11.30;96.70;;;;;;5061621;28;20119;-86
2022/04/26 04:26:10;;;;;;;6.88;2.53;;;11.40;96.70;;;;;;5064320;28;20459;-86
2022/04/26 04:28:38;;;;;;;5.45;2.47;;;11.40;96.70;;;;;;5066387;28;20047;-86
2022/04/26 04:31:08;;;;;;;5.78;2.65;;;11.40;96.70;;;;;;5067200;28;20040;-86
2022/04/26 04:33:36;;;;;;;5.78;2.58;;;11.30;96.70;;;;;;5068821;28;20044;-85
2022/04/26 04:36:04;;;;;;;3.88;2.33;;;11.30;96.70;;;;;;5050990;28;20087;-85
2022/04/26 04:38:32;;;;;;;6.68;2.75;;;11.20;96.70;;;;;;5069386;28;20430;-87
2022/04/26 04:41:01;;;;;;;5.90;3.17;;;11.20;96.70;;;;;;5066273;28;20771;-85
2022/04/26 04:43:30;;;;;;;6.43;2.38;;;11.30;96.70;;;;;;5082244;28;20052;-86
2022/04/26 04:45:58;;;;;;;4.63;2.50;;;11.30;96.70;;;;;;5082984;28;20106;-86
2022/04/26 04:48:26;;;;;;;6.70;2.35;;;11.30;96.70;;;;;;5075611;28;20474;-86
2022/04/26 04:50:54;;;;;;;2.58;1.80;;;11.30;96.70;;;;;;5066003;28;20045;-86
2022/04/26 04:53:37;;;;;;;3.65;2.38;;;11.20;96.70;;;;;;5075804;28;20433;-86
2022/04/26 04:56:09;;;;;;;4.07;2.17;;;11.20;96.70;;;;;;5061946;28;20189;-86
2022/04/26 04:58:39;;;;;;;5.47;2.05;;;11.30;96.70;;;;;;5068374;28;20040;-87
2022/04/26 05:01:07;;;;;;;3.10;1.85;;;11.30;96.70;;;;;;5050771;28;20414;-87
2022/04/26 05:03:35;;;;;;;7.55;2.55;;;11.30;96.70;;;;;;5077052;28;20477;-86
2022/04/26 05:06:04;;;;;;;3.47;1.63;;;11.30;96.70;;;;;;5066442;28;20045;-86
2022/04/26 05:08:33;;;;;;;4.07;2.40;;;11.30;96.70;;;;;;5050242;28;20051;-87
2022/04/26 05:11:01;;;;;;;2.78;1.80;;;11.40;96.70;;;;;;5058943;28;20051;-86
2022/04/26 05:13:30;;;;;;;7.45;2.05;;;11.40;96.70;;;;;;5058674;28;20056;-86
2022/04/26 05:16:00;;;;;;;4.75;2.20;;;11.30;96.70;;;;;;5066568;28;20047;-86
2022/04/26 05:18:29;;;;;;;9.13;2.22;;;11.50;96.70;;;;;;5081490;28;20068;-86
2022/04/26 05:20:57;;;;;;;3.63;1.92;;;11.50;96.70;;;;;;5082769;28;20414;-87
2022/04/26 05:26:12;;;;;;;3.75;2.33;;;11.60;96.70;;;;;;5064664;28;20049;-87
2022/04/26 05:28:40;;;;;;;6.35;2.47;;;11.60;96.70;;;;;;5052958;28;20509;-86
2022/04/26 05:31:10;;;;;;;6.50;2.30;;;11.60;96.70;;;;;;5073153;28;20040;-86
2022/04/26 05:33:38;;;;;;;4.55;2.30;;;11.60;96.70;;;;;;5063430;28;20502;-87
2022/04/26 05:36:06;;;;;;;6.28;2.95;;;11.70;96.70;;;;;;5074766;28;20041;-87
2022/04/26 05:38:34;;;;;;;7.10;2.10;;;11.70;96.70;;;;;;5083145;28;20052;-86
2022/04/26 05:41:02;;;;;;;7.78;3.00;;;11.80;96.70;;;;;;5066305;28;20044;-86
2022/04/26 05:43:33;;;;;;;6.22;2.60;;;11.80;96.70;;;;;;5079655;28;20060;-87
2022/04/26 05:46:01;;;;;;;8.25;2.60;;;12.00;96.70;;;;;;5059536;28;20131;-86
2022/04/26 05:48:31;;;;;;;5.38;2.20;;;12.00;96.70;;;;;;5053924;28;20040;-85
2022/04/26 05:50:59;;;;;;;4.43;2.30;;;12.10;96.70;;;;;;5063658;28;20071;-86
2022/04/26 05:53:27;;;;;;;8.32;2.80;;;12.10;96.70;;;;;;5066776;28;20048;-86
2022/04/26 05:55:55;;;;;;;4.70;2.15;;;12.20;96.70;;;;;;5065092;28;20052;-86
2022/04/26 05:58:23;;;;;;;3.90;2.25;;;12.20;96.70;;;;;;5052799;28;20518;-86
2022/04/26 06:00:51;;;;;;;5.68;2.40;;;12.20;96.70;;;;;;5082832;28;20048;-87
2022/04/26 06:03:19;;;;;;;4.82;2.40;;;12.20;96.70;;;;;;5082310;28;20382;-86
2022/04/26 06:05:49;;;;;;;4.50;2.22;;;12.30;96.70;;;;;;5082539;28;20037;-86
2022/04/26 06:08:17;;;;;;;4.65;2.90;;;12.40;96.70;;;;;;5063552;28;20044;-85
2022/04/26 06:10:45;;;;;;;6.55;2.63;;;12.40;96.70;;;;;;5082974;28;20056;-86
2022/04/26 06:13:13;;;;;;;6.40;2.63;;;12.50;96.70;;;;;;5050405;28;20036;-86
2022/04/26 06:15:41;;;;;;;4.78;2.60;;;12.50;96.70;;;;;;5082548;28;20087;-86
2022/04/26 06:18:09;;;;;;;4.65;2.78;;;12.50;96.70;;;;;;5072034;28;20124;-85
2022/04/26 06:20:37;;;;;;;4.63;2.50;;;12.70;96.70;;;;;;5067277;28;20111;-87
2022/04/26 06:23:07;;;;;;;4.68;2.63;;;12.80;96.70;;;;;;5072930;28;20036;-87
2022/04/26 06:25:37;;;;;;;6.30;2.72;;;13.00;96.70;;;;;;5083671;28;20079;-86
2022/04/26 06:28:08;;;;;;;7.25;2.53;;;13.10;96.70;;;;;;5065310;28;20082;-87
2022/04/26 06:30:38;;;;;;;6.28;2.55;;;13.30;96.70;;;;;;5062447;28;20041;-86
2022/04/26 06:33:06;;;;;;;3.63;2.30;;;13.30;96.70;;;;;;5065835;28;20046;-85
2022/04/26 06:35:42;;;;;;;6.43;2.42;;;13.40;96.70;;;;;;5083380;28;20143;-88
2022/04/26 06:38:11;;;;;;;6.43;2.50;;;13.50;96.70;;;;;;5060620;28;20060;-88
2022/04/26 06:40:39;;;;;;;5.82;2.60;;;13.60;96.70;;;;;;5067193;28;20044;-87
2022/04/26 06:43:07;;;;;;;4.00;2.25;;;13.70;96.70;;;;;;5068399;28;20589;-87
2022/04/26 06:45:36;;;;;;;4.53;2.60;;;13.80;96.70;;;;;;5066127;28;20549;-87
2022/04/26 06:48:07;;;;;;;4.85;2.13;;;13.90;96.70;;;;;;5058631;28;20135;-87
2022/04/26 06:50:36;;;;;;;8.07;2.78;;;14.00;96.70;;;;;;5060007;28;20575;-88
2022/04/26 06:53:04;;;;;;;4.28;2.40;;;14.00;96.70;;;;;;5060232;28;20506;-84
2022/04/26 06:55:34;;;;;;;6.07;2.17;;;14.10;96.70;;;;;;5068443;28;20624;-85
2022/04/26 06:58:04;;;;;;;4.32;2.33;;;14.10;96.70;;;;;;5078831;28;20041;-82
2022/04/26 07:00:35;;;;;;;6.63;2.72;;;14.10;96.70;;;;;;5052131;28;20045;-83
2022/04/26 07:03:04;;;;;;;5.43;2.30;;;14.20;96.70;;;;;;5060713;28;20033;-83
2022/04/26 07:05:33;;;;;;;4.05;2.20;;;14.10;96.70;;;;;;5043604;28;20055;-83
2022/04/26 07:08:01;;;;;;;4.88;2.50;;;14.10;96.70;;;;;;5065652;28;20391;-84
2022/04/26 07:10:29;;;;;;;7.05;2.15;;;14.00;96.70;;;;;;5056939;28;20510;-84
2022/04/26 07:12:58;;;;;;;4.05;1.90;;;13.90;96.70;;;;;;5069453;28;20743;-84
2022/04/26 07:15:26;;;;;;;3.90;2.00;;;14.00;96.70;;;;;;5058242;28;20048;-84
2022/04/26 07:17:54;;;;;;;5.43;2.22;;;14.10;96.70;;;;;;5060837;28;20502;-84
2022/04/26 07:20:24;;;;;;;6.40;2.30;;;14.20;96.70;;;;;;5053872;28;20075;-84
2022/04/26 07:22:52;;;;;;;6.60;2.15;;;14.20;96.70;;;;;;5058619;28;20040;-84
2022/04/26 07:25:20;;;;;;;3.60;2.00;;;14.20;96.70;;;;;;5057906;28;20044;-83
2022/04/26 07:27:49;;;;;;;3.25;2.10;;;14.30;96.70;;;;;;5057358;28;20508;-84
2022/04/26 07:30:18;;;;;;;6.82;2.70;;;14.30;96.70;;;;;;5062761;28;20051;-84
2022/04/26 07:35:33;;;;;;;6.10;2.47;;;14.30;96.70;;;;;;5086508;28;20083;-85
2022/04/26 07:38:05;;;;;;;6.55;2.30;;;14.40;96.70;;;;;;5073370;28;20041;-84
2022/04/26 07:40:34;;;;;;;18.92;3.47;;;14.40;96.70;;;;;;5056665;28;20083;-85
2022/04/26 07:43:03;;;;;;;4.32;2.10;;;14.50;96.70;;;;;;5067117;28;20052;-84
2022/04/26 07:45:39;;;;;;;5.38;2.45;;;14.60;96.70;;;;;;5071327;28;20044;-85
2022/04/26 07:48:08;;;;;;;8.23;2.83;;;14.60;96.70;;;;;;5078206;28;20135;-85
2022/04/26 07:50:37;;;;;;;5.45;2.60;;;14.70;96.70;;;;;;5085815;28;20049;-85
2022/04/26 07:53:05;;;;;;;4.60;2.70;;;14.80;96.70;;;;;;5061175;28;20064;-85
2022/04/26 07:55:36;;;;;;;3.83;2.47;;;14.90;96.70;;;;;;5057398;28;20037;-82
2022/04/26 07:58:04;;;;;;;6.75;2.95;;;15.00;96.70;;;;;;5052744;28;20059;-80
2022/04/26 08:00:33;;;;;;;4.35;2.40;;;15.10;96.70;;;;;;5063927;28;20062;-84
2022/04/26 08:03:05;;;;;;;4.68;2.13;;;15.10;96.70;;;;;;5043938;28;20063;-82
2022/04/26 08:05:45;;;;;;;5.40;2.40;;;15.20;96.70;;;;;;5080009;28;20049;-81
2022/04/26 08:08:13;;;;;;;5.32;2.58;;;15.30;96.70;;;;;;5057784;28;20048;-81
2022/04/26 08:10:41;;;;;;;6.38;2.70;;;15.40;96.70;;;;;;5073133;28;20048;-82
2022/04/26 08:13:10;;;;;;;8.52;2.60;;;15.50;96.70;;;;;;5051885;28;20040;-87
2022/04/26 08:15:39;;;;;;;4.90;2.20;;;15.60;96.70;;;;;;5063994;28;20037;-86
2022/04/26 08:18:10;;;;;;;6.20;2.30;;;15.70;96.70;;;;;;5077154;28;20048;-87
2022/04/26 08:20:38;;;;;;;6.88;2.58;;;15.80;96.70;;;;;;5058221;28;20041;-85
2022/04/26 08:23:06;;;;;;;5.43;2.03;;;15.90;96.70;;;;;;5065922;28;20047;-84
2022/04/26 08:28:21;;;;;;;4.60;1.77;;;16.20;96.70;;;;;;5061097;28;20127;-84
2022/04/26 08:30:50;;;;;;;8.27;2.20;;;16.20;96.70;;;;;;5066913;28;20037;-87
2022/04/26 08:33:20;;;;;;;5.50;2.15;;;16.20;96.70;;;;;;5083892;28;20048;-86
2022/04/26 08:35:48;;;;;;;8.80;2.47;;;16.20;96.70;;;;;;5060626;28;20040;-88
2022/04/26 08:38:31;;;;;;;6.45;2.10;;;16.30;96.70;;;;;;5067251;28;20045;-88
2022/04/26 08:40:58;;;;;;;11.23;5.50;;;16.50;96.70;;;;;;5069102;28;20036;-88
2022/04/26 08:43:33;;;;;;;7.63;2.83;;;16.70;96.70;;;;;;5084516;28;20056;-88
2022/04/26 08:46:03;;;;;;;5.00;2.10;;;16.80;96.70;;;;;;5056889;28;20103;-86
2022/04/26 08:51:20;;;;;;;6.45;2.00;;;17.00;96.70;;;;;;5063152;28;20348;-83
2022/04/26 08:53:48;;;;;;;4.63;1.67;;;17.40;96.70;;;;;;5072717;28;20037;-79
2022/04/26 08:56:17;;;;;;;4.25;1.98;;;17.60;96.70;;;;;;5052474;28;20048;-79
2022/04/26 08:58:48;;;;;;;6.38;1.83;;;17.60;96.70;;;;;;5057748;28;20037;-80
2022/04/26 09:01:22;;;;;;;5.07;1.45;;;17.60;96.70;;;;;;5049899;28;20068;-79
2022/04/26 09:03:56;;;;;;;5.13;1.55;;;17.70;96.70;;;;;;5057361;28;20048;-80
2022/04/26 09:06:36;;;;;;;5.53;2.10;;;17.70;96.70;;;;;;5046473;28;20096;-82
2022/04/26 09:09:13;;;;;;;5.18;1.42;;;17.80;96.70;;;;;;5055728;28;20056;-83
2022/04/26 09:11:41;;;;;;;4.65;1.40;;;18.00;96.70;;;;;;5075675;28;20571;-85
2022/04/26 09:14:28;;;;;;;5.88;1.70;;;18.10;96.70;;;;;;5076822;28;20040;-83
2022/04/26 09:17:04;;;;;;;5.57;1.65;;;18.30;96.70;;;;;;5077988;28;20052;-83
2022/04/26 09:19:49;;;;;;;6.18;1.50;;;18.40;96.70;;;;;;5056253;28;20123;-82
2022/04/26 09:22:26;;;;;;;6.45;1.70;;;18.40;96.70;;;;;;5072780;28;20040;-86
2022/04/26 09:24:56;;;;;;;6.28;1.48;;;18.40;96.70;;;;;;5081061;28;20052;-83
2022/04/26 09:27:25;;;;;;;4.80;1.30;;;18.50;96.70;;;;;;5078353;28;20383;-82
2022/04/26 09:29:53;;;;;;;4.55;1.90;;;18.60;96.70;;;;;;5069836;28;20673;-83
2022/04/26 09:32:23;;;;;;;7.05;1.88;;;18.70;96.70;;;;;;5070680;28;20423;-83
2022/04/26 09:34:52;;;;;;;3.90;1.70;;;18.60;96.70;;;;;;5054958;28;20473;-81
2022/04/26 09:37:20;;;;;;;4.05;1.45;;;18.70;96.70;;;;;;5050946;28;20392;-82
2022/04/26 09:40:02;;;;;;;4.28;1.70;;;18.80;96.70;;;;;;5078755;28;20048;-82
2022/04/26 09:42:33;;;;;;;4.82;1.50;;;18.90;96.70;;;;;;5056331;28;20059;-82
2022/04/26 09:45:06;;;;;;;4.65;1.55;;;19.00;96.70;;;;;;5059050;28;20048;-83
2022/04/26 09:47:36;;;;;;;4.38;1.90;;;19.00;96.70;;;;;;5042761;28;20048;-83
2022/04/26 09:50:10;;;;;;;4.07;1.35;;;19.00;96.70;;;;;;5055627;28;20044;-81
2022/04/26 09:52:38;;;;;;;3.20;1.45;;;19.00;96.70;;;;;;5067647;28;20049;-82
2022/04/26 09:55:08;;;;;;;3.60;1.10;;;19.10;96.70;;;;;;5055581;28;20799;-83
2022/04/26 09:57:38;;;;;;;3.78;1.42;;;19.10;96.70;;;;;;5054372;28;20102;-84
2022/04/26 10:00:11;;;;;;;5.38;1.52;;;19.00;96.70;;;;;;5056232;28;20119;-83
2022/04/26 10:03:05;;;;;;;5.05;1.67;;;19.10;96.70;;;;;;5042557;28;20137;-83
2022/04/26 10:05:39;;;;;;;5.70;1.83;;;19.20;96.70;;;;;;5043383;28;20056;-84
2022/04/26 10:08:07;;;;;;;5.60;1.58;;;19.40;96.70;;;;;;5050006;28;20044;-82
2022/04/26 10:10:37;;;;;;;5.95;1.70;;;19.50;96.70;;;;;;5075949;28;20502;-83
2022/04/26 10:15:53;;;;;;;5.07;1.40;;;19.80;96.70;;;;;;5052237;28;20060;-82
2022/04/26 10:18:32;;;;;;;3.03;1.27;;;19.80;96.70;;;;;;5057833;28;20040;-83
2022/04/26 10:21:04;;;;;;;6.82;1.30;;;19.70;96.70;;;;;;5069881;28;20052;-83
2022/04/26 10:24:05;;;;;;;3.58;1.48;;;19.80;96.70;;;;;;5042885;28;20045;-85
2022/04/26 10:26:35;;;;;;;4.00;1.08;;;19.80;96.70;;;;;;5039871;28;20056;-84
2022/04/26 10:29:13;;;;;;;4.38;1.48;;;19.70;96.70;;;;;;5061533;28;20067;-84
2022/04/26 10:31:44;;;;;;;3.65;1.17;;;19.70;96.70;;;;;;5053274;28;20101;-83
2022/04/26 10:34:18;;;;;;;3.50;1.45;;;19.80;96.70;;;;;;5054989;28;20560;-82
2022/04/26 10:36:48;;;;;;;3.95;1.33;;;19.80;96.70;;;;;;5057162;28;20048;-82
2022/04/26 10:39:25;;;;;;;5.80;1.52;;;19.90;96.70;;;;;;5061237;28;20696;-83
2022/04/26 10:41:54;;;;;;;4.75;1.50;;;20.00;96.70;;;;;;5052203;28;20037;-84
2022/04/26 10:44:26;;;;;;;3.78;1.17;;;20.20;96.70;;;;;;5071502;28;20041;-83
2022/04/26 10:47:28;;;;;;;3.22;1.35;;;20.30;96.70;;;;;;5055240;28;20043;-84
2022/04/26 10:49:58;;;;;;;5.40;1.50;;;20.20;96.70;;;;;;4990662;28;20090;-82
2022/04/26 10:52:35;;;;;;;3.63;1.40;;;20.20;96.70;;;;;;4974694;28;20048;-84
2022/04/26 10:55:09;;;;;;;5.10;1.63;;;20.10;96.70;;;;;;4993016;28;20061;-83
2022/04/26 10:57:42;;;;;;;3.38;1.40;;;19.90;96.70;;;;;;4978970;28;20053;-83
2022/04/26 11:00:14;;;;;;;3.38;1.60;;;20.00;96.70;;;;;;4992736;28;20050;-82
2022/04/26 11:02:43;;;;;;;3.55;1.27;;;20.10;96.70;;;;;;4978304;28;20053;-83
2022/04/26 11:05:12;;;;;;;3.45;1.45;;;20.20;96.70;;;;;;4992466;28;20057;-82
2022/04/26 11:07:43;;;;;;;5.10;1.75;;;20.50;96.70;;;;;;4994875;28;20085;-82
2022/04/26 11:10:13;;;;;;;3.38;1.10;;;20.60;96.70;;;;;;4977496;28;20173;-82
2022/04/26 11:12:41;;;;;;;3.92;1.73;;;20.80;96.70;;;;;;5001042;28;20137;-83
2022/04/26 11:15:11;;;;;;;5.03;1.20;;;20.90;96.70;;;;;;4991932;28;20574;-81
2022/04/26 11:17:40;;;;;;;3.92;1.48;;;20.90;96.70;;;;;;4999035;28;20077;-81
2022/04/26 11:20:14;;;;;;;7.78;1.50;;;21.00;96.70;;;;;;5012535;28;20049;-82
2022/04/26 11:22:49;;;;;;;3.38;1.63;;;21.00;96.70;;;;;;5057249;28;20724;-82
2022/04/26 11:28:06;;;;;;;3.40;1.33;;;21.40;96.70;;;;;;5073984;28;20068;-82
2022/04/26 11:30:36;;;;;;;3.55;1.40;;;21.70;96.70;;;;;;5059792;28;20044;-81
2022/04/26 11:33:06;;;;;;;3.65;1.52;;;21.80;96.70;;;;;;5060525;28;20524;-81
2022/04/26 11:35:35;;;;;;;7.15;1.67;;;21.50;96.70;;;;;;5072751;28;20044;-82
2022/04/26 11:38:08;;;;;;;3.65;1.58;;;21.50;96.70;;;;;;5067251;28;20040;-82
2022/04/26 11:40:41;;;;;;;2.92;1.48;;;21.80;96.70;;;;;;5059823;28;20152;-81
2022/04/26 11:43:11;;;;;;;4.70;1.45;;;22.20;96.70;;;;;;5052250;28;20196;-81
2022/04/26 11:45:46;;;;;;;2.83;1.40;;;22.40;96.70;;;;;;5076221;28;20047;-82
2022/04/26 11:48:16;;;;;;;4.53;1.50;;;22.10;96.70;;;;;;5075966;28;20047;-82
2022/04/26 11:50:46;;;;;;;4.95;1.60;;;21.80;96.70;;;;;;5046620;28;20072;-80
2022/04/26 11:53:18;;;;;;;5.40;1.77;;;21.90;96.70;;;;;;5036516;28;20084;-81
2022/04/26 11:55:57;;;;;;;2.92;1.80;;;21.60;96.70;;;;;;5055138;28;20053;-82
2022/04/26 11:58:33;;;;;;;4.20;1.40;;;21.70;96.70;;;;;;5071781;28;20074;-80
2022/04/26 12:01:03;;;;;;;5.43;1.52;;;21.90;96.70;;;;;;5073757;28;20052;-82
2022/04/26 12:03:35;;;;;;;2.22;1.15;;;22.00;96.70;;;;;;5048849;28;20048;-82
2022/04/26 12:06:05;;;;;;;6.25;1.95;;;22.00;96.70;;;;;;5057661;28;20060;-81
2022/04/26 12:08:39;;;;;;;4.85;1.77;;;22.10;96.70;;;;;;5056262;28;20040;-82
2022/04/26 12:11:18;;;;;;;6.30;2.03;;;22.40;96.70;;;;;;5072266;28;20049;-81
2022/04/26 12:13:58;;;;;;;4.28;1.83;;;22.30;96.70;;;;;;5060134;28;20074;-81
2022/04/26 12:16:28;;;;;;;6.55;2.03;;;22.30;96.70;;;;;;5053411;28;20556;-82
2022/04/26 12:18:57;;;;;;;4.57;1.67;;;22.30;96.70;;;;;;5058452;28;20053;-80
2022/04/26 12:21:29;;;;;;;3.63;1.67;;;22.20;96.70;;;;;;5060202;28;20144;-81
2022/04/26 12:24:13;;;;;;;4.57;1.65;;;22.00;96.70;;;;;;5078204;28;20062;-81
2022/04/26 12:26:55;;;;;;;5.80;1.80;;;22.10;96.70;;;;;;5052822;28;20044;-81
2022/04/26 12:29:25;;;;;;;3.90;1.42;;;22.10;96.70;;;;;;5057150;28;20072;-82
2022/04/26 12:31:53;;;;;;;3.88;1.70;;;22.00;96.70;;;;;;5058499;28;20137;-82
2022/04/26 12:34:23;;;;;;;6.85;1.88;;;22.00;96.70;;;;;;5060076;28;20375;-82
2022/04/26 12:36:57;;;;;;;3.95;1.95;;;22.30;96.70;;;;;;5053379;28;20052;-81
2022/04/26 12:39:39;;;;;;;5.45;1.70;;;22.70;96.70;;;;;;5076675;28;20048;-83
2022/04/26 12:42:08;;;;;;;4.20;1.88;;;22.60;96.70;;;;;;5069330;28;20052;-82
2022/04/26 12:44:47;;;;;;;7.57;1.98;;;22.60;96.70;;;;;;5056023;28;20045;-81
2022/04/26 12:52:53;;;;;;;4.72;1.67;;;22.40;96.70;;;;;;5058135;28;20037;-82
2022/04/26 12:55:29;;;;;;;3.45;1.33;;;22.50;96.70;;;;;;5057211;28;20589;-82
2022/04/26 12:57:59;;;;;;;3.83;1.33;;;22.70;96.70;;;;;;5054454;28;20063;-82
2022/04/26 13:00:27;;;;;;;6.45;1.85;;;22.90;96.70;;;;;;5052406;28;20526;-83
2022/04/26 13:02:58;;;;;;;5.55;1.83;;;22.60;96.70;;;;;;5072360;28;20683;-82
2022/04/26 13:05:37;;;;;;;4.20;1.30;;;22.80;96.70;;;;;;5036358;28;20151;-81
2022/04/26 13:08:05;;;;;;;6.07;1.33;;;23.00;96.70;;;;;;5076044;28;20398;-81
2022/04/26 13:10:35;;;;;;;4.15;1.50;;;22.90;96.70;;;;;;5051059;28;20724;-81
2022/04/26 13:13:05;;;;;;;3.15;1.60;;;22.80;96.70;;;;;;5059574;28;20047;-82
2022/04/26 13:15:34;;;;;;;3.78;1.55;;;22.60;96.70;;;;;;5069634;28;20048;-83
2022/04/26 13:18:03;;;;;;;2.10;1.20;;;22.70;96.70;;;;;;5073686;28;20384;-82
2022/04/26 13:20:32;;;;;;;5.65;1.83;;;22.70;96.70;;;;;;5071470;28;20057;-83
2022/04/26 13:23:01;;;;;;;4.75;1.42;;;22.40;96.70;;;;;;5058263;28;20146;-82
2022/04/26 13:25:30;;;;;;;4.57;1.70;;;22.60;96.70;;;;;;5041523;28;20094;-82
2022/04/26 13:28:03;;;;;;;5.53;1.60;;;22.80;96.70;;;;;;5059696;28;20052;-82
2022/04/26 13:30:31;;;;;;;6.68;1.50;;;22.80;96.70;;;;;;5055135;28;20107;-82
2022/04/26 13:33:00;;;;;;;2.53;1.00;;;23.00;96.70;;;;;;5074240;28;20056;-82
2022/04/26 13:35:28;;;;;;;6.47;1.45;;;23.30;96.70;;;;;;5054897;28;20055;-82
2022/04/26 13:37:58;;;;;;;3.03;1.40;;;23.40;96.70;;;;;;5059126;28;20045;-82
2022/04/26 13:40:26;;;;;;;2.72;1.45;;;23.40;96.70;;;;;;5061834;28;20049;-82
2022/04/26 13:42:58;;;;;;;4.13;1.45;;;23.40;96.70;;;;;;5054075;28;20133;-82
2022/04/26 13:45:27;;;;;;;4.28;1.33;;;23.30;96.70;;;;;;5058282;28;20080;-81
2022/04/26 13:47:55;;;;;;;3.97;1.70;;;23.50;96.70;;;;;;5074734;28;20102;-82
2022/04/26 13:50:24;;;;;;;2.22;1.00;;;23.60;96.70;;;;;;5075540;28;20041;-82
2022/04/26 13:52:53;;;;;;;2.40;1.20;;;23.80;96.70;;;;;;5066128;28;20068;-83
2022/04/26 13:55:21;;;;;;;3.78;1.13;;;23.60;96.70;;;;;;5065408;28;20526;-83
2022/04/26 13:57:50;;;;;;;2.78;1.20;;;23.40;96.70;;;;;;5065564;28;20071;-83
2022/04/26 14:00:20;;;;;;;5.03;1.20;;;23.40;96.70;;;;;;5054406;28;20045;-83
2022/04/26 14:02:48;;;;;;;2.88;1.20;;;23.50;96.70;;;;;;5059371;28;20514;-81
2022/04/26 14:05:18;;;;;;;4.00;1.52;;;23.70;96.70;;;;;;5079549;28;20051;-81
2022/04/26 14:07:48;;;;;;;2.95;1.35;;;23.90;96.70;;;;;;5060722;28;20158;-83
2022/04/26 14:10:17;;;;;;;4.28;1.20;;;24.00;96.70;;;;;;5075522;28;20075;-82
2022/04/26 14:12:45;;;;;;;3.97;1.50;;;24.30;96.70;;;;;;5054966;28;20139;-83
2022/04/26 14:23:38;;;;;;;5.10;1.60;;;24.60;96.70;;;;;;5062492;28;20127;-82
2022/04/26 14:26:07;;;;;;;7.90;1.23;;;24.80;96.70;;;;;;5065031;28;20086;-82
2022/04/26 14:28:35;;;;;;;5.18;1.60;;;24.60;96.70;;;;;;5057034;28;20052;-82
2022/04/26 14:31:03;;;;;;;3.80;1.40;;;24.60;96.70;;;;;;5055386;28;20036;-81
2022/04/26 14:33:33;;;;;;;3.35;1.65;;;24.80;96.70;;;;;;5053039;28;20076;-83
2022/04/26 14:36:01;;;;;;;5.63;1.50;;;25.00;96.70;;;;;;5053583;28;20052;-82
2022/04/26 14:38:30;;;;;;;3.75;1.45;;;24.80;96.70;;;;;;5043450;28;20539;-81
2022/04/26 14:40:58;;;;;;;2.85;1.25;;;24.60;96.70;;;;;;5060332;28;20409;-82
2022/04/26 14:43:26;;;;;;;5.28;1.33;;;24.80;96.70;;;;;;5063246;28;20126;-83
2022/04/26 14:45:55;;;;;;;3.60;1.10;;;25.00;96.70;;;;;;5053894;28;20045;-82
2022/04/26 14:48:23;;;;;;;7.13;1.63;;;25.10;96.70;;;;;;5062191;28;20055;-82
2022/04/26 14:50:56;;;;;;;6.32;1.38;;;25.30;96.70;;;;;;5066072;28;20052;-83
2022/04/26 14:53:25;;;;;;;4.60;1.05;;;25.10;96.70;;;;;;5063100;28;20057;-83
2022/04/26 14:56:11;;;;;;;3.63;1.00;;;25.30;96.70;;;;;;5069892;28;20129;-83
2022/04/26 14:59:01;;;;;;;2.90;1.25;;;25.10;96.70;;;;;;5062776;28;20048;-83
2022/04/26 15:01:36;;;;;;;6.30;1.43;;;25.10;96.70;;;;;;5053812;28;20125;-84
2022/04/26 15:04:05;;;;;;;3.97;1.27;;;25.40;96.70;;;;;;5062518;28;20074;-83
2022/04/26 15:06:34;;;;;;;7.07;1.50;;;25.60;96.70;;;;;;5078294;28;20561;-82
2022/04/26 15:16:37;;;;;;;5.60;1.65;;;26.20;96.70;;;;;;5059570;28;20043;-83
2022/04/26 15:18:54;;;;;;;4.53;1.27;;;26.10;96.30;;;;;;5055447;28;20186;-83
2022/04/26 15:21:24;;;;;;;3.00;1.40;;;26.60;94.80;;;;;;5079294;28;20045;-83
2022/04/26 15:23:53;;;;;;;3.75;1.25;;;26.80;94.20;;;;;;5058878;28;20391;-81
2022/04/26 15:26:22;;;;;;;3.92;1.50;;;27.00;92.70;;;;;;5075638;28;20122;-83
2022/04/26 15:28:50;;;;;;;5.75;1.65;;;26.90;92.10;;;;;;5075661;28;20047;-83
2022/04/26 15:31:18;;;;;;;2.92;1.25;;;27.10;93.60;;;;;;5060451;28;20162;-83
2022/04/26 15:33:48;;;;;;;3.30;1.10;;;27.30;90.10;;;;;;5059153;28;20488;-84
2022/04/26 15:36:17;;;;;;;3.75;1.42;;;27.30;89.20;;;;;;5057410;28;20494;-84
2022/04/26 15:38:47;;;;;;;4.22;1.40;;;27.00;89.90;;;;;;5075624;28;20143;-83
2022/04/26 15:41:17;;;;;;;4.22;1.40;;;26.60;90.00;;;;;;5041562;28;20215;-83
2022/04/26 15:43:45;;;;;;;3.22;1.20;;;26.90;90.60;;;;;;5046977;28;20052;-84
2022/04/26 15:46:34;;;;;;;4.65;1.20;;;27.30;90.20;;;;;;5052380;28;20048;-85
2022/04/26 15:49:02;;;;;;;5.22;1.23;;;28.10;88.90;;;;;;5052056;28;20045;-83
2022/04/26 15:51:31;;;;;;;4.43;1.30;;;28.40;88.30;;;;;;5068479;28;20083;-84
2022/04/26 15:54:01;;;;;;;3.50;1.20;;;28.60;88.00;;;;;;5063794;28;20046;-84
2022/04/26 15:56:32;;;;;;;2.95;1.17;;;28.80;86.10;;;;;;5060996;28;20040;-83
2022/04/26 15:59:01;;;;;;;2.47;1.10;;;28.10;86.20;;;;;;5074244;28;20135;-84
2022/04/26 16:01:36;;;;;;;3.42;1.10;;;27.90;87.20;;;;;;5077684;28;20076;-83
2022/04/26 16:04:05;;;;;;;2.75;1.10;;;28.20;87.90;;;;;;5080441;28;20037;-84
2022/04/26 16:06:33;;;;;;;3.70;1.25;;;28.50;86.50;;;;;;5061142;28;20072;-83
2022/04/26 16:20:32;;;;;;;3.17;1.73;;;28.20;86.40;;;;;;5063544;28;20553;-86
2022/04/26 16:23:02;;;;;;;2.78;0.90;;;28.70;85.80;;;;;;5060271;28;20502;-86
2022/04/26 16:25:31;;;;;;;3.28;0.93;;;29.20;84.80;;;;;;5067063;28;20803;-85
2022/04/26 16:28:01;;;;;;;1.98;0.93;;;29.70;83.70;;;;;;5067679;28;20489;-85
2022/04/26 16:30:30;;;;;;;3.45;1.30;;;29.60;83.30;;;;;;5065333;28;20056;-85
2022/04/26 16:33:01;;;;;;;2.90;1.05;;;29.70;83.50;;;;;;5084924;28;20051;-84
2022/04/26 16:35:31;;;;;;;3.00;1.10;;;29.30;83.80;;;;;;5051826;28;20045;-86
2022/04/26 16:38:01;;;;;;;3.70;1.50;;;28.60;85.20;;;;;;5070198;28;20044;-86
2022/04/26 16:40:31;;;;;;;3.55;1.17;;;28.80;85.30;;;;;;5083709;28;20607;-85
2022/04/26 16:43:02;;;;;;;2.70;0.93;;;29.40;84.60;;;;;;5058031;28;20063;-85
2022/04/26 16:45:31;;;;;;;6.00;1.40;;;29.90;83.40;;;;;;5067109;28;20522;-85
2022/04/26 16:47:59;;;;;;;1.65;0.95;;;29.90;82.00;;;;;;5066949;28;20082;-86
2022/04/26 16:50:28;;;;;;;2.90;1.20;;;29.60;81.80;;;;;;5058342;28;20048;-85
2022/04/26 16:53:08;;;;;;;2.22;1.15;;;29.60;80.10;;;;;;5049775;28;20072;-86
2022/04/26 16:55:37;;;;;;;2.63;1.00;;;29.20;79.70;;;;;;5076227;28;20168;-86
2022/04/26 16:58:07;;;;;;;3.55;1.13;;;28.90;80.70;;;;;;5082240;28;20047;-85
2022/04/26 17:00:36;;;;;;;5.15;1.10;;;29.00;81.60;;;;;;5083394;28;20052;-86
2022/04/26 17:03:05;;;;;;;3.38;1.00;;;29.20;82.10;;;;;;5068759;28;20142;-87
2022/04/26 17:05:34;;;;;;;4.15;1.23;;;29.40;82.00;;;;;;5068267;28;20413;-85
2022/04/26 17:08:04;;;;;;;3.17;1.10;;;29.20;82.10;;;;;;5068332;28;20098;-84
2022/04/26 17:10:33;;;;;;;3.42;1.10;;;29.00;82.20;;;;;;5063269;28;20048;-86
2022/04/26 17:13:01;;;;;;;2.50;0.98;;;28.80;83.30;;;;;;5065873;28;20045;-85
2022/04/26 17:15:31;;;;;;;3.75;0.88;;;29.20;82.80;;;;;;5082158;28;20086;-85
2022/04/26 17:18:01;;;;;;;2.90;1.10;;;28.20;84.00;;;;;;5070936;28;20068;-86
2022/04/26 17:20:33;;;;;;;2.20;1.10;;;25.70;88.30;;;;;;5065858;28;20048;-85
2022/04/26 17:23:02;;;;;;;3.72;1.17;;;24.40;92.40;;;;;;5061416;28;20044;-83
2022/04/26 17:25:34;;;;;;;2.28;1.23;;;23.40;94.70;;;;;;5056467;28;20571;-82
2022/04/26 17:28:13;;;;;;;3.85;1.80;;;22.70;96.70;;;;;;5072743;28;20771;-84
2022/04/26 17:30:42;;;;;;;2.95;1.17;;;22.10;96.70;;;;;;5066523;28;20044;-82
2022/04/26 17:33:11;;;;;;;3.45;1.38;;;21.80;96.70;;;;;;5055530;28;20049;-82